Time,TemperatureF,DewpointF,PressureIn,WindDirection,WindDirectionDegrees,WindSpeedMPH,WindSpeedGustMPH,Humidity,HourlyPrecipIn,Conditions,Clouds,dailyrainin,SoftwareType,DateUTC
2014-01-14 00:00:00,46.8,40.3,29.78,South,187,6.0,14.0,78,0.00,,CLR,0.00,VWS V13.01,2014-01-14 05:00:00,
2014-01-14 00:01:00,46.8,40.3,29.78,South,173,6.0,6.0,78,0.00,,CLR,0.00,VWS V13.01,2014-01-14 05:01:00,
2014-01-14 00:03:00,46.9,40.4,29.78,WSW,249,7.0,11.0,78,0.00,,CLR,0.00,VWS V13.01,2014-01-14 05:03:00,
2014-01-14 00:08:00,47.1,40.6,29.78,South,180,4.0,11.0,78,0.00,,CLR,0.00,VWS V13.01,2014-01-14 05:08:00,
2014-01-14 00:13:00,47.2,40.4,29.78,SSE,153,6.0,12.0,77,0.00,,CLR,0.00,VWS V13.01,2014-01-14 05:13:00,
2014-01-14 00:18:00,47.5,40.7,29.77,South,175,6.0,12.0,77,0.00,,CLR,0.00,VWS V13.01,2014-01-14 05:18:00,
2014-01-14 00:23:00,47.7,40.8,29.77,SSW,198,7.0,12.0,77,0.00,,CLR,0.00,VWS V13.01,2014-01-14 05:23:00,
2014-01-14 00:28:00,47.8,40.6,29.77,SSW,192,7.0,15.0,76,0.00,,CLR,0.00,VWS V13.01,2014-01-14 05:28:00,
2014-01-14 00:33:00,48.0,40.8,29.77,SSW,193,6.0,12.0,76,0.00,,CLR,0.00,VWS V13.01,2014-01-14 05:33:00,
2014-01-14 00:38:00,48.1,40.9,29.77,SW,218,9.0,16.0,76,0.00,,CLR,0.00,VWS V13.01,2014-01-14 05:38:00,
2014-01-14 00:43:00,48.1,40.9,29.77,SSW,207,4.0,16.0,76,0.00,,CLR,0.00,VWS V13.01,2014-01-14 05:43:00,
2014-01-14 00:48:00,48.3,41.1,29.77,South,171,6.0,16.0,76,0.00,,CLR,0.00,VWS V13.01,2014-01-14 05:48:00,
2014-01-14 00:53:00,48.4,41.2,29.77,SSE,163,4.0,16.0,76,0.00,,CLR,0.00,VWS V13.01,2014-01-14 05:53:00,
2014-01-14 00:58:00,48.4,41.2,29.77,South,180,3.0,16.0,76,0.00,,CLR,0.00,VWS V13.01,2014-01-14 05:58:00,
2014-01-14 01:03:00,48.4,41.5,29.77,South,184,3.0,10.0,77,0.00,,CLR,0.00,VWS V13.01,2014-01-14 06:03:00,
2014-01-14 01:08:00,48.6,41.7,29.77,SSE,147,4.0,10.0,77,0.00,,CLR,0.00,VWS V13.01,2014-01-14 06:08:00,
2014-01-14 01:13:00,48.6,41.7,29.77,South,172,10.0,12.0,77,0.00,,CLR,0.00,VWS V13.01,2014-01-14 06:13:00,
2014-01-14 01:18:00,48.7,41.8,29.77,South,187,2.0,12.0,77,0.00,,CLR,0.00,VWS V13.01,2014-01-14 06:18:00,
2014-01-14 01:23:00,48.7,41.8,29.77,South,184,3.0,13.0,77,0.00,,CLR,0.00,VWS V13.01,2014-01-14 06:23:00,
2014-01-14 01:28:00,48.7,41.8,29.77,South,175,7.0,13.0,77,0.00,,CLR,0.00,VWS V13.01,2014-01-14 06:28:00,
2014-01-14 01:33:00,48.7,42.2,29.76,South,175,5.0,10.0,78,0.00,,CLR,0.00,VWS V13.01,2014-01-14 06:33:00,
2014-01-14 01:38:00,48.9,42.3,29.76,SSE,167,5.0,10.0,78,0.00,,CLR,0.00,VWS V13.01,2014-01-14 06:38:00,
2014-01-14 01:43:00,48.9,42.3,29.76,South,182,10.0,10.0,78,0.00,,CLR,0.00,VWS V13.01,2014-01-14 06:43:00,
2014-01-14 01:48:00,48.9,42.3,29.76,South,176,2.0,10.0,78,0.00,,CLR,0.00,VWS V13.01,2014-01-14 06:48:00,
2014-01-14 01:53:00,48.9,42.7,29.76,South,181,5.0,12.0,79,0.00,,CLR,0.00,VWS V13.01,2014-01-14 06:53:00,
2014-01-14 01:58:00,49.0,42.8,29.76,SW,219,5.0,13.0,79,0.00,,CLR,0.00,VWS V13.01,2014-01-14 06:58:00,
2014-01-14 02:03:00,49.0,42.8,29.76,South,173,3.0,8.0,79,0.00,,CLR,0.00,VWS V13.01,2014-01-14 07:03:00,
2014-01-14 02:08:00,49.0,43.1,29.76,SSW,197,2.0,12.0,80,0.00,,CLR,0.00,VWS V13.01,2014-01-14 07:08:00,
2014-01-14 02:13:00,49.0,43.1,29.76,SSW,208,7.0,12.0,80,0.00,,CLR,0.00,VWS V13.01,2014-01-14 07:13:00,
2014-01-14 02:18:00,49.0,43.1,29.75,SSW,195,5.0,15.0,80,0.00,,CLR,0.00,VWS V13.01,2014-01-14 07:18:00,
2014-01-14 02:23:00,49.1,43.5,29.75,SSE,156,3.0,15.0,81,0.00,,CLR,0.00,VWS V13.01,2014-01-14 07:23:00,
2014-01-14 02:28:00,49.1,43.5,29.75,SSW,205,3.0,15.0,81,0.00,,CLR,0.00,VWS V13.01,2014-01-14 07:28:00,
2014-01-14 02:33:00,49.1,43.5,29.74,South,186,9.0,11.0,81,0.00,,CLR,0.00,VWS V13.01,2014-01-14 07:33:00,
2014-01-14 02:38:00,49.3,43.7,29.74,SW,220,7.0,11.0,81,0.00,,CLR,0.00,VWS V13.01,2014-01-14 07:38:00,
2014-01-14 02:43:00,49.3,43.7,29.74,South,175,6.0,11.0,81,0.00,,CLR,0.00,VWS V13.01,2014-01-14 07:43:00,
2014-01-14 02:48:00,49.1,43.5,29.74,SSW,196,9.0,11.0,81,0.00,,CLR,0.00,VWS V13.01,2014-01-14 07:48:00,
2014-01-14 02:53:00,49.1,43.2,29.74,SW,219,6.0,11.0,80,0.00,,CLR,0.00,VWS V13.01,2014-01-14 07:53:00,
2014-01-14 02:58:00,49.1,43.2,29.74,South,169,6.0,11.0,80,0.00,,CLR,0.00,VWS V13.01,2014-01-14 07:58:00,
2014-01-14 03:03:00,49.1,43.2,29.73,South,173,2.0,8.0,80,0.00,,CLR,0.00,VWS V13.01,2014-01-14 08:03:00,
2014-01-14 03:08:00,49.1,43.2,29.73,SSE,165,6.0,9.0,80,0.00,,CLR,0.00,VWS V13.01,2014-01-14 08:08:00,
2014-01-14 03:13:00,49.1,43.2,29.73,SSW,205,1.0,9.0,80,0.00,,CLR,0.00,VWS V13.01,2014-01-14 08:13:00,
2014-01-14 03:18:00,49.1,43.2,29.73,SSE,165,7.0,16.0,80,0.00,,CLR,0.00,VWS V13.01,2014-01-14 08:18:00,
2014-01-14 03:23:00,49.1,42.9,29.73,SSW,208,3.0,16.0,79,0.00,,CLR,0.00,VWS V13.01,2014-01-14 08:23:00,
2014-01-14 03:28:00,49.1,42.9,29.73,South,169,6.0,16.0,79,0.00,,CLR,0.00,VWS V13.01,2014-01-14 08:28:00,
2014-01-14 03:33:00,49.1,42.9,29.73,South,171,4.0,5.0,79,0.00,,CLR,0.00,VWS V13.01,2014-01-14 08:33:00,
2014-01-14 03:38:00,49.1,42.9,29.73,SSW,200,5.0,11.0,79,0.00,,CLR,0.00,VWS V13.01,2014-01-14 08:38:00,
2014-01-14 03:43:00,49.1,42.9,29.73,South,169,2.0,11.0,79,0.00,,CLR,0.00,VWS V13.01,2014-01-14 08:43:00,
2014-01-14 03:48:00,49.1,42.5,29.73,SW,231,0.0,11.0,78,0.00,,CLR,0.00,VWS V13.01,2014-01-14 08:48:00,
2014-01-14 03:53:00,49.1,42.5,29.73,SW,232,6.0,12.0,78,0.00,,CLR,0.00,VWS V13.01,2014-01-14 08:53:00,
2014-01-14 03:58:00,49.1,42.5,29.73,SSW,213,3.0,12.0,78,0.00,,CLR,0.00,VWS V13.01,2014-01-14 08:58:00,
2014-01-14 04:03:00,49.0,42.5,29.72,South,185,0.0,7.0,78,0.00,,CLR,0.00,VWS V13.01,2014-01-14 09:03:00,
2014-01-14 04:08:00,49.0,42.5,29.72,SSW,202,0.0,7.0,78,0.00,,CLR,0.00,VWS V13.01,2014-01-14 09:08:00,
2014-01-14 04:13:00,48.9,42.3,29.72,South,188,8.0,8.0,78,0.00,,CLR,0.00,VWS V13.01,2014-01-14 09:13:00,
2014-01-14 04:18:00,48.9,42.0,29.71,SSW,202,8.0,11.0,77,0.00,,CLR,0.00,VWS V13.01,2014-01-14 09:18:00,
2014-01-14 04:23:00,48.9,42.0,29.71,SSE,167,1.0,11.0,77,0.00,,CLR,0.00,VWS V13.01,2014-01-14 09:23:00,
2014-01-14 04:28:00,48.9,42.0,29.71,South,189,2.0,11.0,77,0.00,,CLR,0.00,VWS V13.01,2014-01-14 09:28:00,
2014-01-14 04:33:00,48.9,42.0,29.70,South,178,0.0,5.0,77,0.00,,CLR,0.00,VWS V13.01,2014-01-14 09:33:00,
2014-01-14 04:37:00,48.9,42.0,29.70,South,177,2.0,9.0,77,0.00,,CLR,0.00,VWS V13.01,2014-01-14 09:37:00,
2014-01-14 04:42:00,48.7,41.8,29.70,SSE,167,4.0,9.0,77,0.00,,CLR,0.00,VWS V13.01,2014-01-14 09:42:00,
2014-01-14 04:47:00,48.7,41.8,29.71,South,175,4.0,9.0,77,0.00,,CLR,0.00,VWS V13.01,2014-01-14 09:47:00,
2014-01-14 04:52:00,48.9,42.0,29.71,South,186,5.0,11.0,77,0.00,,CLR,0.00,VWS V13.01,2014-01-14 09:52:00,
2014-01-14 04:57:00,48.9,42.0,29.71,SSW,196,4.0,11.0,77,0.00,,CLR,0.00,VWS V13.01,2014-01-14 09:57:00,
2014-01-14 05:02:00,48.9,42.0,29.71,SSW,205,1.0,6.0,77,0.00,,CLR,0.00,VWS V13.01,2014-01-14 10:02:00,
2014-01-14 05:07:00,48.7,41.8,29.71,SW,215,1.0,6.0,77,0.00,,CLR,0.00,VWS V13.01,2014-01-14 10:07:00,
2014-01-14 05:12:00,48.7,41.5,29.71,SSE,158,2.0,6.0,76,0.00,,CLR,0.00,VWS V13.01,2014-01-14 10:12:00,
2014-01-14 05:17:00,48.7,41.5,29.71,South,171,2.0,6.0,76,0.00,,CLR,0.00,VWS V13.01,2014-01-14 10:17:00,
2014-01-14 05:22:00,48.7,41.5,29.71,South,172,1.0,7.0,76,0.00,,CLR,0.00,VWS V13.01,2014-01-14 10:22:00,
2014-01-14 05:27:00,48.9,41.7,29.71,South,174,0.0,8.0,76,0.00,,CLR,0.00,VWS V13.01,2014-01-14 10:27:00,
2014-01-14 05:32:00,48.9,41.7,29.71,SSE,165,5.0,5.0,76,0.00,,CLR,0.00,VWS V13.01,2014-01-14 10:32:00,
2014-01-14 05:37:00,48.7,41.5,29.71,SSW,197,1.0,6.0,76,0.00,,CLR,0.00,VWS V13.01,2014-01-14 10:37:00,
2014-01-14 05:42:00,48.7,41.5,29.71,South,182,5.0,6.0,76,0.00,,CLR,0.00,VWS V13.01,2014-01-14 10:42:00,
2014-01-14 05:47:00,48.7,41.8,29.71,South,170,1.0,6.0,77,0.00,,CLR,0.00,VWS V13.01,2014-01-14 10:47:00,
2014-01-14 05:52:00,48.7,41.8,29.71,SSW,196,1.0,7.0,77,0.00,,CLR,0.00,VWS V13.01,2014-01-14 10:52:00,
2014-01-14 05:57:00,48.6,41.4,29.71,SE,143,4.0,7.0,76,0.00,,CLR,0.00,VWS V13.01,2014-01-14 10:57:00,
2014-01-14 06:02:00,48.6,41.7,29.71,SSW,196,0.0,5.0,77,0.00,,FEW120,0.00,VWS V13.01,2014-01-14 11:02:00,
2014-01-14 06:07:00,48.4,41.5,29.71,SSE,157,6.0,6.0,77,0.00,,FEW120,0.00,VWS V13.01,2014-01-14 11:07:00,
2014-01-14 06:12:00,48.4,41.5,29.71,SSW,198,2.0,6.0,77,0.00,,FEW120,0.00,VWS V13.01,2014-01-14 11:12:00,
2014-01-14 06:17:00,48.3,41.4,29.72,SW,219,5.0,6.0,77,0.00,,FEW120,0.00,VWS V13.01,2014-01-14 11:17:00,
2014-01-14 06:22:00,48.3,41.4,29.72,South,174,0.0,6.0,77,0.00,,FEW120,0.00,VWS V13.01,2014-01-14 11:22:00,
2014-01-14 06:27:00,48.3,41.4,29.72,South,174,3.0,6.0,77,0.00,,FEW120,0.00,VWS V13.01,2014-01-14 11:27:00,
2014-01-14 06:32:00,48.3,41.4,29.72,SSE,167,0.0,5.0,77,0.00,,FEW120,0.00,VWS V13.01,2014-01-14 11:32:00,
2014-01-14 06:37:00,48.1,41.6,29.72,South,171,2.0,6.0,78,0.00,,FEW120,0.00,VWS V13.01,2014-01-14 11:37:00,
2014-01-14 06:42:00,48.1,41.2,29.72,SSW,192,1.0,6.0,77,0.00,,FEW120,0.00,VWS V13.01,2014-01-14 11:42:00,
2014-01-14 06:47:00,48.0,41.5,29.71,SSW,200,1.0,6.0,78,0.00,,FEW120,0.00,VWS V13.01,2014-01-14 11:47:00,
2014-01-14 06:52:00,48.0,41.5,29.71,SSE,168,1.0,6.0,78,0.00,,FEW120,0.00,VWS V13.01,2014-01-14 11:52:00,
2014-01-14 06:57:00,47.8,41.3,29.71,South,172,0.0,6.0,78,0.00,,FEW120,0.00,VWS V13.01,2014-01-14 11:57:00,
2014-01-14 07:02:00,47.5,41.3,29.71,South,173,1.0,4.0,79,0.00,,OVC095,0.00,VWS V13.01,2014-01-14 12:02:00,
2014-01-14 07:07:00,47.5,41.7,29.71,South,174,4.0,5.0,80,0.00,,OVC095,0.00,VWS V13.01,2014-01-14 12:07:00,
2014-01-14 07:12:00,47.5,41.7,29.71,South,182,0.0,5.0,80,0.00,,OVC095,0.00,VWS V13.01,2014-01-14 12:12:00,
2014-01-14 07:17:00,47.4,41.9,29.71,South,175,0.0,6.0,81,0.00,,OVC095,0.00,VWS V13.01,2014-01-14 12:17:00,
2014-01-14 07:22:00,47.4,41.9,29.71,SSW,193,0.0,6.0,81,0.00,,OVC095,0.00,VWS V13.01,2014-01-14 12:22:00,
2014-01-14 07:27:00,47.2,41.7,29.71,South,184,1.0,6.0,81,0.00,,OVC095,0.00,VWS V13.01,2014-01-14 12:27:00,
2014-01-14 07:32:00,47.2,41.7,29.71,South,181,2.0,5.0,81,0.00,,OVC095,0.00,VWS V13.01,2014-01-14 12:32:00,
2014-01-14 07:37:00,47.2,41.7,29.71,South,172,0.0,6.0,81,0.00,,OVC095,0.00,VWS V13.01,2014-01-14 12:37:00,
2014-01-14 07:42:00,47.2,41.7,29.71,South,178,1.0,10.0,81,0.00,,OVC095,0.00,VWS V13.01,2014-01-14 12:42:00,
2014-01-14 07:47:00,47.2,41.7,29.71,SSE,165,0.0,10.0,81,0.00,,OVC095,0.00,VWS V13.01,2014-01-14 12:47:00,
2014-01-14 07:52:00,47.2,41.7,29.71,South,169,0.0,10.0,81,0.00,,OVC095,0.00,VWS V13.01,2014-01-14 12:52:00,
2014-01-14 07:57:00,47.4,41.5,29.71,SSE,167,1.0,10.0,80,0.00,,OVC095,0.00,VWS V13.01,2014-01-14 12:57:00,
2014-01-14 08:02:00,47.4,41.5,29.71,South,190,1.0,5.0,80,0.00,,OVC095,0.00,VWS V13.01,2014-01-14 13:02:00,
2014-01-14 08:07:00,47.5,41.3,29.71,South,180,1.0,11.0,79,0.00,,OVC095,0.00,VWS V13.01,2014-01-14 13:07:00,
2014-01-14 08:12:00,47.5,41.0,29.71,SSW,203,2.0,11.0,78,0.00,,OVC095,0.00,VWS V13.01,2014-01-14 13:12:00,
2014-01-14 08:17:00,47.7,41.2,29.71,SSW,200,4.0,11.0,78,0.00,,OVC095,0.00,VWS V13.01,2014-01-14 13:17:00,
2014-01-14 08:22:00,47.7,40.8,29.71,South,178,5.0,11.0,77,0.00,,OVC095,0.00,VWS V13.01,2014-01-14 13:22:00,
2014-01-14 08:27:00,47.8,41.0,29.71,South,184,2.0,11.0,77,0.00,,OVC095,0.00,VWS V13.01,2014-01-14 13:27:00,
2014-01-14 08:32:00,48.0,41.2,29.71,SSW,195,1.0,8.0,77,0.00,,OVC095,0.00,VWS V13.01,2014-01-14 13:32:00,
2014-01-14 08:37:00,48.0,41.2,29.71,South,176,1.0,8.0,77,0.00,,OVC095,0.00,VWS V13.01,2014-01-14 13:37:00,
2014-01-14 08:42:00,48.0,41.2,29.71,South,191,1.0,8.0,77,0.00,,OVC095,0.00,VWS V13.01,2014-01-14 13:42:00,
2014-01-14 08:47:00,48.0,41.2,29.72,SSE,154,1.0,8.0,77,0.00,,OVC095,0.00,VWS V13.01,2014-01-14 13:47:00,
2014-01-14 08:52:00,48.0,41.2,29.72,South,190,3.0,8.0,77,0.00,,OVC095,0.00,VWS V13.01,2014-01-14 13:52:00,
2014-01-14 08:57:00,47.8,41.0,29.72,SSE,157,5.0,8.0,77,0.00,,OVC095,0.00,VWS V13.01,2014-01-14 13:57:00,
2014-01-14 09:02:00,47.8,41.3,29.73,South,177,5.0,5.0,78,0.00,,-RA,0.00,VWS V13.01,2014-01-14 14:02:00,
2014-01-14 09:07:00,47.8,41.0,29.73,South,174,2.0,7.0,77,0.00,,-RA,0.00,VWS V13.01,2014-01-14 14:07:00,
2014-01-14 09:12:00,47.8,41.0,29.73,SSE,168,1.0,9.0,77,0.00,,-RA,0.00,VWS V13.01,2014-01-14 14:12:00,
2014-01-14 09:17:00,47.8,41.3,29.72,SSE,168,0.0,9.0,78,0.00,,-RA,0.00,VWS V13.01,2014-01-14 14:17:00,
2014-01-14 09:22:00,47.8,41.3,29.72,SSE,163,4.0,9.0,78,0.00,,-RA,0.00,VWS V13.01,2014-01-14 14:22:00,
2014-01-14 09:27:00,47.8,41.3,29.72,South,171,5.0,9.0,78,0.00,,-RA,0.00,VWS V13.01,2014-01-14 14:27:00,
2014-01-14 09:32:00,47.8,41.3,29.72,South,177,2.0,4.0,78,0.00,,-RA,0.00,VWS V13.01,2014-01-14 14:32:00,
2014-01-14 09:37:00,47.8,41.3,29.72,SSE,165,5.0,6.0,78,0.00,,-RA,0.00,VWS V13.01,2014-01-14 14:37:00,
2014-01-14 09:42:00,47.8,41.6,29.72,SSW,205,7.0,7.0,79,0.00,,-RA,0.00,VWS V13.01,2014-01-14 14:42:00,
2014-01-14 09:47:00,47.8,41.6,29.72,South,178,0.0,8.0,79,0.00,,-RA,0.00,VWS V13.01,2014-01-14 14:47:00,
2014-01-14 09:52:00,48.0,42.1,29.72,SSE,154,5.0,8.0,80,0.00,,-RA,0.00,VWS V13.01,2014-01-14 14:52:00,
2014-01-14 09:57:00,47.8,42.3,29.72,South,173,1.0,8.0,81,0.00,,-RA,0.00,VWS V13.01,2014-01-14 14:57:00,
2014-01-14 10:02:00,47.8,42.3,29.71,SSE,164,5.0,8.0,81,0.00,,-RA,0.00,VWS V13.01,2014-01-14 15:02:00,
2014-01-14 10:07:00,47.7,42.5,29.71,South,180,5.0,9.0,82,0.00,,-RA,0.00,VWS V13.01,2014-01-14 15:07:00,
2014-01-14 10:12:00,47.5,42.3,29.71,SSE,159,8.0,9.0,82,0.00,,-RA,0.00,VWS V13.01,2014-01-14 15:12:00,
2014-01-14 10:17:00,47.2,42.3,29.72,South,184,5.0,9.0,83,0.00,,-RA,0.01,VWS V13.01,2014-01-14 15:17:00,
2014-01-14 10:22:00,47.1,42.5,29.72,South,179,5.0,9.0,84,0.01,,-RA,0.01,VWS V13.01,2014-01-14 15:22:00,
2014-01-14 10:27:00,46.9,42.6,29.72,South,188,2.0,9.0,85,0.01,,-RA,0.01,VWS V13.01,2014-01-14 15:27:00,
2014-01-14 10:32:00,46.8,42.8,29.72,South,172,1.0,11.0,86,0.02,,-RA,0.02,VWS V13.01,2014-01-14 15:32:00,
2014-01-14 10:37:00,46.6,42.9,29.72,SSE,157,5.0,11.0,87,0.02,,-RA,0.02,VWS V13.01,2014-01-14 15:37:00,
2014-01-14 10:42:00,46.5,43.1,29.72,SSE,161,1.0,11.0,88,0.02,,-RA,0.02,VWS V13.01,2014-01-14 15:42:00,
2014-01-14 10:47:00,46.5,43.1,29.71,ESE,109,5.0,11.0,88,0.02,,-RA,0.02,VWS V13.01,2014-01-14 15:47:00,
2014-01-14 10:52:00,46.3,43.0,29.71,South,181,0.0,11.0,88,0.02,,-RA,0.03,VWS V13.01,2014-01-14 15:52:00,
2014-01-14 10:57:00,46.3,43.2,29.71,SW,222,7.0,11.0,89,0.03,,-RA,0.03,VWS V13.01,2014-01-14 15:57:00,
2014-01-14 11:02:00,46.2,43.4,29.69,SSW,205,3.0,6.0,90,0.03,,-RA,0.03,VWS V13.01,2014-01-14 16:02:00,
2014-01-14 11:07:00,46.3,43.5,29.69,SSW,192,0.0,6.0,90,0.03,,-RA,0.03,VWS V13.01,2014-01-14 16:07:00,
2014-01-14 11:12:00,46.3,43.8,29.69,WSW,246,5.0,6.0,91,0.03,,-RA,0.03,VWS V13.01,2014-01-14 16:12:00,
2014-01-14 11:17:00,46.2,43.7,29.67,SSW,201,4.0,6.0,91,0.04,,-RA,0.04,VWS V13.01,2014-01-14 16:17:00,
2014-01-14 11:22:00,46.2,43.7,29.67,South,171,1.0,6.0,91,0.04,,-RA,0.04,VWS V13.01,2014-01-14 16:22:00,
2014-01-14 11:27:00,46.2,44.0,29.67,SSW,198,3.0,6.0,92,0.04,,-RA,0.04,VWS V13.01,2014-01-14 16:27:00,
2014-01-14 11:32:00,46.2,44.0,29.66,South,182,0.0,5.0,92,0.03,,-RA,0.04,VWS V13.01,2014-01-14 16:32:00,
2014-01-14 11:37:00,46.2,44.0,29.66,South,170,0.0,5.0,92,0.03,,-RA,0.04,VWS V13.01,2014-01-14 16:37:00,
2014-01-14 11:42:00,46.2,44.0,29.66,SW,224,1.0,7.0,92,0.03,,-RA,0.04,VWS V13.01,2014-01-14 16:42:00,
2014-01-14 11:47:00,46.2,44.3,29.65,South,174,0.0,7.0,93,0.03,,-RA,0.04,VWS V13.01,2014-01-14 16:47:00,
2014-01-14 11:52:00,46.2,44.3,29.65,SSW,202,2.0,7.0,93,0.03,,-RA,0.04,VWS V13.01,2014-01-14 16:52:00,
2014-01-14 11:57:00,46.2,44.3,29.65,South,183,3.0,7.0,93,0.03,,-RA,0.04,VWS V13.01,2014-01-14 16:57:00,
2014-01-14 12:02:00,46.2,44.3,29.65,South,175,2.0,5.0,93,0.01,,-RA,0.04,VWS V13.01,2014-01-14 17:02:00,
2014-01-14 12:07:00,46.2,44.6,29.65,South,178,1.0,5.0,94,0.02,,-RA,0.05,VWS V13.01,2014-01-14 17:07:00,
2014-01-14 12:12:00,46.0,44.4,29.65,South,178,0.0,5.0,94,0.03,,-RA,0.06,VWS V13.01,2014-01-14 17:12:00,
2014-01-14 12:17:00,46.0,44.4,29.65,South,179,0.0,5.0,94,0.03,,-RA,0.06,VWS V13.01,2014-01-14 17:17:00,
2014-01-14 12:22:00,46.0,44.4,29.65,South,183,0.0,5.0,94,0.04,,-RA,0.08,VWS V13.01,2014-01-14 17:22:00,
2014-01-14 12:27:00,46.0,44.4,29.65,South,182,0.0,5.0,94,0.05,,-RA,0.09,VWS V13.01,2014-01-14 17:27:00,
2014-01-14 12:32:00,46.0,44.7,29.64,South,182,0.0,0.0,95,0.05,,-RA,0.09,VWS V13.01,2014-01-14 17:32:00,
2014-01-14 12:37:00,46.0,44.7,29.64,South,182,0.0,0.0,95,0.06,,-RA,0.10,VWS V13.01,2014-01-14 17:37:00,
2014-01-14 12:42:00,45.9,44.5,29.64,South,183,0.0,0.0,95,0.06,,-RA,0.11,VWS V13.01,2014-01-14 17:42:00,
2014-01-14 12:47:00,45.9,44.5,29.63,South,182,0.0,0.0,95,0.07,,-RA,0.11,VWS V13.01,2014-01-14 17:47:00,
2014-01-14 12:52:00,45.9,44.5,29.63,South,182,0.0,0.0,95,0.08,,-RA,0.12,VWS V13.01,2014-01-14 17:52:00,
2014-01-14 12:57:00,45.9,44.5,29.63,South,182,0.0,0.0,95,0.08,,-RA,0.12,VWS V13.01,2014-01-14 17:57:00,
2014-01-14 13:02:00,45.9,44.5,29.64,South,182,0.0,1.0,95,0.08,,-RA,0.13,VWS V13.01,2014-01-14 18:02:00,
2014-01-14 13:07:00,45.9,44.5,29.64,South,182,0.0,1.0,95,0.09,,-RA,0.13,VWS V13.01,2014-01-14 18:07:00,
2014-01-14 13:12:00,45.9,44.8,29.64,South,182,0.0,1.0,96,0.09,,-RA,0.14,VWS V13.01,2014-01-14 18:12:00,
2014-01-14 13:17:00,45.9,44.8,29.62,South,182,0.0,1.0,96,0.10,,-RA,0.14,VWS V13.01,2014-01-14 18:17:00,
2014-01-14 13:22:00,45.9,44.8,29.62,South,182,0.0,1.0,96,0.10,,-RA,0.14,VWS V13.01,2014-01-14 18:22:00,
2014-01-14 13:27:00,45.9,44.8,29.62,South,182,0.0,1.0,96,0.10,,-RA,0.14,VWS V13.01,2014-01-14 18:27:00,
2014-01-14 13:32:00,45.9,44.8,29.62,South,182,0.0,0.0,96,0.05,,-RA,0.15,VWS V13.01,2014-01-14 18:32:00,
2014-01-14 13:37:00,45.9,44.8,29.62,South,182,0.0,0.0,96,0.06,,-RA,0.15,VWS V13.01,2014-01-14 18:37:00,
2014-01-14 13:42:00,45.9,44.8,29.62,South,182,0.0,0.0,96,0.07,,-RA,0.16,VWS V13.01,2014-01-14 18:42:00,
2014-01-14 13:47:00,45.7,44.6,29.60,South,182,0.0,0.0,96,0.07,,-RA,0.16,VWS V13.01,2014-01-14 18:47:00,
2014-01-14 13:52:00,45.9,44.8,29.60,South,182,0.0,0.0,96,0.07,,-RA,0.16,VWS V13.01,2014-01-14 18:52:00,
2014-01-14 13:57:00,45.9,44.8,29.60,South,182,0.0,0.0,96,0.07,,-RA,0.16,VWS V13.01,2014-01-14 18:57:00,
2014-01-14 14:02:00,45.9,44.8,29.60,South,182,0.0,0.0,96,0.04,,-RA,0.16,VWS V13.01,2014-01-14 19:02:00,
2014-01-14 14:07:00,45.9,44.8,29.60,South,182,0.0,0.0,96,0.05,,-RA,0.17,VWS V13.01,2014-01-14 19:07:00,
2014-01-14 14:12:00,46.0,44.9,29.60,South,182,0.0,0.0,96,0.05,,-RA,0.17,VWS V13.01,2014-01-14 19:12:00,
2014-01-14 14:17:00,46.0,44.9,29.60,South,182,0.0,0.0,96,0.05,,-RA,0.17,VWS V13.01,2014-01-14 19:17:00,
2014-01-14 14:22:00,45.9,44.8,29.60,South,182,0.0,0.0,96,0.05,,-RA,0.17,VWS V13.01,2014-01-14 19:22:00,
2014-01-14 14:27:00,45.9,44.8,29.60,South,182,0.0,0.0,96,0.06,,-RA,0.18,VWS V13.01,2014-01-14 19:27:00,
2014-01-14 14:32:00,45.9,44.8,29.59,South,183,0.0,0.0,96,0.04,,-RA,0.18,VWS V13.01,2014-01-14 19:32:00,
2014-01-14 14:37:00,45.9,44.8,29.59,South,182,0.0,0.0,96,0.04,,-RA,0.18,VWS V13.01,2014-01-14 19:37:00,
2014-01-14 14:42:00,45.7,44.6,29.59,South,182,0.0,0.0,96,0.04,,-RA,0.18,VWS V13.01,2014-01-14 19:42:00,
2014-01-14 14:47:00,45.7,44.9,29.59,South,182,0.0,0.0,97,0.05,,-RA,0.19,VWS V13.01,2014-01-14 19:47:00,
2014-01-14 14:52:00,45.7,44.9,29.59,South,182,0.0,0.0,97,0.05,,-RA,0.19,VWS V13.01,2014-01-14 19:52:00,
2014-01-14 14:57:00,45.7,44.9,29.59,South,182,0.0,0.0,97,0.06,,-RA,0.20,VWS V13.01,2014-01-14 19:57:00,
2014-01-14 15:02:00,45.7,44.9,29.59,South,182,0.0,0.0,97,0.04,,-RA,0.20,VWS V13.01,2014-01-14 20:02:00,
2014-01-14 15:07:00,45.7,44.9,29.59,South,182,0.0,0.0,97,0.05,,-RA,0.21,VWS V13.01,2014-01-14 20:07:00,
2014-01-14 15:12:00,45.6,44.8,29.59,South,182,0.0,0.0,97,0.06,,-RA,0.22,VWS V13.01,2014-01-14 20:12:00,
2014-01-14 15:17:00,45.6,44.8,29.57,South,182,0.0,0.0,97,0.06,,-RA,0.22,VWS V13.01,2014-01-14 20:17:00,
2014-01-14 15:22:00,45.6,44.8,29.57,South,182,0.0,0.0,97,0.07,,-RA,0.23,VWS V13.01,2014-01-14 20:22:00,
2014-01-14 15:27:00,45.5,44.7,29.57,South,182,0.0,0.0,97,0.08,,-RA,0.24,VWS V13.01,2014-01-14 20:27:00,
2014-01-14 15:32:00,45.3,44.5,29.57,South,182,0.0,0.0,97,0.06,,-RA,0.24,VWS V13.01,2014-01-14 20:32:00,
2014-01-14 15:37:00,45.3,44.5,29.57,South,182,0.0,1.0,97,0.06,,-RA,0.24,VWS V13.01,2014-01-14 20:37:00,
2014-01-14 15:42:00,45.2,44.4,29.57,South,182,0.0,1.0,97,0.07,,-RA,0.25,VWS V13.01,2014-01-14 20:42:00,
2014-01-14 15:47:00,45.2,44.4,29.57,South,182,0.0,1.0,97,0.08,,-RA,0.26,VWS V13.01,2014-01-14 20:47:00,
2014-01-14 15:52:00,45.2,44.4,29.57,South,182,0.0,1.0,97,0.08,,-RA,0.26,VWS V13.01,2014-01-14 20:52:00,
2014-01-14 15:57:00,45.0,44.2,29.57,South,182,0.0,1.0,97,0.08,,-RA,0.27,VWS V13.01,2014-01-14 20:57:00,
2014-01-14 16:02:00,45.0,44.2,29.57,South,182,0.0,0.0,97,0.07,,-RA,0.28,VWS V13.01,2014-01-14 21:02:00,
2014-01-14 16:07:00,45.0,44.2,29.57,South,182,0.0,0.0,97,0.08,,-RA,0.28,VWS V13.01,2014-01-14 21:07:00,
2014-01-14 16:12:00,45.0,44.2,29.57,South,182,0.0,0.0,97,0.09,,-RA,0.29,VWS V13.01,2014-01-14 21:12:00,
2014-01-14 16:17:00,45.0,44.5,29.55,South,182,0.0,0.0,98,0.09,,-RA,0.29,VWS V13.01,2014-01-14 21:17:00,
2014-01-14 16:22:00,44.9,44.4,29.55,South,182,0.0,0.0,98,0.10,,-RA,0.30,VWS V13.01,2014-01-14 21:22:00,
2014-01-14 16:27:00,44.9,44.4,29.55,South,182,0.0,0.0,98,0.10,,-RA,0.30,VWS V13.01,2014-01-14 21:27:00,
2014-01-14 16:32:00,44.9,44.4,29.55,South,182,0.0,0.0,98,0.06,,-RA,0.30,VWS V13.01,2014-01-14 21:32:00,
2014-01-14 16:37:00,44.9,44.4,29.55,South,182,0.0,0.0,98,0.07,,-RA,0.31,VWS V13.01,2014-01-14 21:37:00,
2014-01-14 16:42:00,44.7,44.2,29.55,South,182,0.0,0.0,98,0.08,,-RA,0.32,VWS V13.01,2014-01-14 21:42:00,
2014-01-14 16:47:00,44.6,44.1,29.55,South,182,0.0,2.0,98,0.08,,-RA,0.32,VWS V13.01,2014-01-14 21:47:00,
2014-01-14 16:52:00,44.4,43.9,29.55,South,182,0.0,2.0,98,0.10,,-RA,0.34,VWS V13.01,2014-01-14 21:52:00,
2014-01-14 16:57:00,44.4,43.9,29.55,South,182,0.0,2.0,98,0.10,,-RA,0.34,VWS V13.01,2014-01-14 21:57:00,
2014-01-14 17:02:00,44.6,44.1,29.54,South,182,0.0,0.0,98,0.08,,-RA,0.35,VWS V13.01,2014-01-14 22:02:00,
2014-01-14 17:07:00,44.6,44.1,29.54,South,182,0.0,0.0,98,0.09,,-RA,0.36,VWS V13.01,2014-01-14 22:07:00,
2014-01-14 17:12:00,44.4,43.9,29.54,South,182,0.0,0.0,98,0.09,,-RA,0.36,VWS V13.01,2014-01-14 22:12:00,
2014-01-14 17:17:00,44.4,43.9,29.54,South,182,0.0,0.0,98,0.10,,RA,0.37,VWS V13.01,2014-01-14 22:17:00,
2014-01-14 17:22:00,44.4,43.9,29.54,South,182,0.0,0.0,98,0.11,,RA,0.38,VWS V13.01,2014-01-14 22:22:00,
2014-01-14 17:27:00,44.4,43.9,29.54,South,182,0.0,0.0,98,0.12,,RA,0.39,VWS V13.01,2014-01-14 22:27:00,
2014-01-14 17:32:00,44.4,43.9,29.54,South,182,0.0,0.0,98,0.10,,RA,0.40,VWS V13.01,2014-01-14 22:32:00,
2014-01-14 17:37:00,44.3,43.8,29.54,South,182,0.0,2.0,98,0.12,,RA,0.42,VWS V13.01,2014-01-14 22:37:00,
2014-01-14 17:42:00,44.3,43.8,29.54,South,183,0.0,2.0,98,0.13,,RA,0.43,VWS V13.01,2014-01-14 22:42:00,
2014-01-14 17:47:00,44.4,43.9,29.54,South,183,1.0,2.0,98,0.14,,RA,0.44,VWS V13.01,2014-01-14 22:47:00,
2014-01-14 17:52:00,44.4,44.1,29.54,South,183,0.0,2.0,99,0.15,,RA,0.45,VWS V13.01,2014-01-14 22:52:00,
2014-01-14 17:57:00,44.6,44.3,29.54,South,187,1.0,2.0,99,0.16,,RA,0.46,VWS V13.01,2014-01-14 22:57:00,
2014-01-14 18:02:00,44.6,44.3,29.54,South,186,0.0,0.0,99,0.12,,RA,0.48,VWS V13.01,2014-01-14 23:02:00,
2014-01-14 18:07:00,44.6,44.3,29.54,South,187,0.0,0.0,99,0.13,,RA,0.48,VWS V13.01,2014-01-14 23:07:00,
2014-01-14 18:12:00,44.6,44.3,29.54,South,187,0.0,0.0,99,0.14,,RA,0.49,VWS V13.01,2014-01-14 23:12:00,
2014-01-14 18:17:00,44.6,44.3,29.53,South,186,0.0,1.0,99,0.14,,RA,0.49,VWS V13.01,2014-01-14 23:17:00,
2014-01-14 18:22:00,44.6,44.3,29.53,South,186,0.0,1.0,99,0.15,,-RA,0.50,VWS V13.01,2014-01-14 23:22:00,
2014-01-14 18:27:00,44.4,44.1,29.53,WNW,292,0.0,2.0,99,0.15,,-RA,0.50,VWS V13.01,2014-01-14 23:27:00,
2014-01-14 18:32:00,44.4,44.1,29.54,West,265,1.0,5.0,99,0.10,,-RA,0.50,VWS V13.01,2014-01-14 23:32:00,
2014-01-14 18:37:00,44.4,44.1,29.54,WNW,287,0.0,5.0,99,0.11,,-RA,0.51,VWS V13.01,2014-01-14 23:37:00,
2014-01-14 18:42:00,44.4,44.1,29.54,WNW,287,0.0,5.0,99,0.12,,-RA,0.52,VWS V13.01,2014-01-14 23:42:00,
2014-01-14 18:47:00,44.4,44.1,29.52,WNW,287,2.0,5.0,99,0.12,,-RA,0.52,VWS V13.01,2014-01-14 23:47:00,
2014-01-14 18:52:00,44.3,44.0,29.52,West,259,0.0,5.0,99,0.12,,-RA,0.52,VWS V13.01,2014-01-14 23:52:00,
2014-01-14 18:57:00,44.3,44.0,29.52,West,259,0.0,5.0,99,0.13,,-RA,0.53,VWS V13.01,2014-01-14 23:57:00,
2014-01-14 19:02:00,44.1,43.8,29.52,West,271,2.0,5.0,99,0.08,,-RA,0.54,VWS V13.01,2014-01-15 00:02:00,
2014-01-14 19:07:00,44.1,43.8,29.52,West,277,2.0,5.0,99,0.08,,-RA,0.54,VWS V13.01,2014-01-15 00:07:00,
2014-01-14 19:12:00,44.1,43.8,29.52,WNW,286,1.0,5.0,99,0.09,,-RA,0.55,VWS V13.01,2014-01-15 00:12:00,
2014-01-14 19:17:00,44.1,43.8,29.53,WSW,254,0.0,6.0,99,0.10,,-RA,0.56,VWS V13.01,2014-01-15 00:17:00,
2014-01-14 19:22:00,44.0,43.7,29.53,NW,309,2.0,10.0,99,0.10,,-RA,0.56,VWS V13.01,2014-01-15 00:22:00,
2014-01-14 19:27:00,44.0,43.7,29.53,West,269,7.0,10.0,99,0.11,,-RA,0.57,VWS V13.01,2014-01-15 00:27:00,
2014-01-14 19:32:00,44.0,43.7,29.55,WNW,288,5.0,20.0,99,0.08,,-RA,0.58,VWS V13.01,2014-01-15 00:32:00,
2014-01-14 19:37:00,43.8,43.5,29.55,NW,315,0.0,20.0,99,0.09,,-RA,0.59,VWS V13.01,2014-01-15 00:37:00,
2014-01-14 19:42:00,43.7,43.4,29.55,NW,310,0.0,20.0,99,0.10,,RA,0.60,VWS V13.01,2014-01-15 00:42:00,
2014-01-14 19:47:00,43.7,43.4,29.54,WNW,288,0.0,20.0,99,0.11,,RA,0.61,VWS V13.01,2014-01-15 00:47:00,
2014-01-14 19:52:00,43.6,43.3,29.54,WNW,288,0.0,20.0,99,0.12,,RA,0.62,VWS V13.01,2014-01-15 00:52:00,
2014-01-14 19:57:00,43.4,43.1,29.54,WNW,292,0.0,20.0,99,0.12,,RA,0.62,VWS V13.01,2014-01-15 00:57:00,
2014-01-14 20:02:00,43.3,43.0,29.54,WNW,292,0.0,2.0,99,0.09,,RA,0.62,VWS V13.01,2014-01-15 01:02:00,
2014-01-14 20:07:00,43.3,43.0,29.54,WNW,292,1.0,3.0,99,0.09,,RA,0.62,VWS V13.01,2014-01-15 01:07:00,
2014-01-14 20:12:00,43.1,42.8,29.54,WNW,295,0.0,5.0,99,0.09,,RA,0.62,VWS V13.01,2014-01-15 01:12:00,
2014-01-14 20:17:00,43.1,42.8,29.54,WNW,295,1.0,5.0,99,0.09,,RA,0.62,VWS V13.01,2014-01-15 01:17:00,
2014-01-14 20:22:00,43.0,42.7,29.54,WNW,293,0.0,6.0,99,0.10,,RA,0.63,VWS V13.01,2014-01-15 01:22:00,
2014-01-14 20:27:00,43.0,42.7,29.54,NNE,19,5.0,6.0,99,0.10,,RA,0.63,VWS V13.01,2014-01-15 01:27:00,
2014-01-14 20:32:00,43.0,42.7,29.56,NNE,18,0.0,4.0,99,0.05,,RA,0.63,VWS V13.01,2014-01-15 01:32:00,
2014-01-14 20:37:00,42.8,42.5,29.56,NNE,18,0.0,4.0,99,0.05,,RA,0.63,VWS V13.01,2014-01-15 01:37:00,
2014-01-14 20:42:00,42.8,42.5,29.56,NNE,18,0.0,4.0,99,0.05,,RA,0.63,VWS V13.01,2014-01-15 01:42:00,
2014-01-14 20:47:00,42.7,42.4,29.54,NNE,18,0.0,4.0,99,0.05,,RA,0.63,VWS V13.01,2014-01-15 01:47:00,
2014-01-14 20:52:00,42.7,42.4,29.54,NNE,18,0.0,4.0,99,0.05,,RA,0.63,VWS V13.01,2014-01-15 01:52:00,
2014-01-14 20:57:00,42.6,42.3,29.54,NNE,18,0.0,4.0,99,0.05,,RA,0.63,VWS V13.01,2014-01-15 01:57:00,
2014-01-14 21:02:00,42.4,42.1,29.52,NNE,19,2.0,3.0,99,0.01,,-RA,0.63,VWS V13.01,2014-01-15 02:02:00,
2014-01-14 21:07:00,42.4,42.1,29.52,NNE,18,0.0,3.0,99,0.01,,-RA,0.63,VWS V13.01,2014-01-15 02:07:00,
2014-01-14 21:12:00,42.3,42.0,29.52,NNE,18,0.0,3.0,99,0.01,,-RA,0.63,VWS V13.01,2014-01-15 02:12:00,
2014-01-14 21:17:00,42.1,41.8,29.51,NNE,18,0.0,3.0,99,0.01,,-RA,0.63,VWS V13.01,2014-01-15 02:17:00,
2014-01-14 21:22:00,42.0,41.7,29.51,NNE,18,1.0,3.0,99,0.01,,-RA,0.63,VWS V13.01,2014-01-15 02:22:00,
2014-01-14 21:27:00,41.8,41.5,29.51,NNE,17,2.0,3.0,99,0.01,,-RA,0.63,VWS V13.01,2014-01-15 02:27:00,
2014-01-14 21:32:00,41.7,41.4,29.55,WSW,245,1.0,4.0,99,0.00,,-RA,0.63,VWS V13.01,2014-01-15 02:32:00,
2014-01-14 21:37:00,41.7,41.4,29.55,WSW,245,5.0,5.0,99,0.00,,-RA,0.63,VWS V13.01,2014-01-15 02:37:00,
2014-01-14 21:42:00,41.8,41.5,29.55,SW,230,2.0,7.0,99,0.00,,-RA,0.63,VWS V13.01,2014-01-15 02:42:00,
2014-01-14 21:47:00,42.0,42.0,29.57,WSW,252,4.0,8.0,100,0.00,,-RA,0.63,VWS V13.01,2014-01-15 02:47:00,
2014-01-14 21:52:00,42.1,42.1,29.57,West,268,8.0,14.0,100,0.00,,-RA,0.63,VWS V13.01,2014-01-15 02:52:00,
2014-01-14 21:57:00,42.4,42.4,29.57,WNW,283,5.0,14.0,100,0.00,,-RA,0.63,VWS V13.01,2014-01-15 02:57:00,
2014-01-14 22:02:00,42.4,42.4,29.59,NW,308,7.0,10.0,100,0.00,,OVC110,0.63,VWS V13.01,2014-01-15 03:02:00,
2014-01-14 22:07:00,42.4,42.4,29.59,West,279,6.0,12.0,100,0.01,,OVC110,0.64,VWS V13.01,2014-01-15 03:07:00,
2014-01-14 22:12:00,42.4,42.4,29.59,WNW,290,6.0,12.0,100,0.01,,OVC110,0.64,VWS V13.01,2014-01-15 03:12:00,
2014-01-14 22:17:00,42.3,42.0,29.58,West,269,7.0,13.0,99,0.01,,OVC110,0.64,VWS V13.01,2014-01-15 03:17:00,
2014-01-14 22:22:00,42.3,42.0,29.58,West,277,2.0,13.0,99,0.01,,-RA,0.64,VWS V13.01,2014-01-15 03:22:00,
2014-01-14 22:27:00,42.1,41.8,29.58,WSW,242,6.0,13.0,99,0.01,,-RA,0.64,VWS V13.01,2014-01-15 03:27:00,
2014-01-14 22:32:00,42.1,41.8,29.60,WSW,252,11.0,12.0,99,0.01,,-RA,0.64,VWS V13.01,2014-01-15 03:32:00,
2014-01-14 22:37:00,42.1,41.8,29.60,WSW,248,11.0,12.0,99,0.01,,-RA,0.64,VWS V13.01,2014-01-15 03:37:00,
2014-01-14 22:42:00,42.1,41.8,29.60,WSW,254,5.0,13.0,99,0.01,,-RA,0.64,VWS V13.01,2014-01-15 03:42:00,
2014-01-14 22:47:00,42.1,41.8,29.62,West,269,2.0,13.0,99,0.01,,OVC080,0.64,VWS V13.01,2014-01-15 03:47:00,
2014-01-14 22:52:00,42.1,41.8,29.62,West,261,4.0,13.0,99,0.01,,OVC080,0.64,VWS V13.01,2014-01-15 03:52:00,
2014-01-14 22:57:00,42.1,41.8,29.62,SW,232,9.0,13.0,99,0.01,,OVC080,0.64,VWS V13.01,2014-01-15 03:57:00,
2014-01-14 23:02:00,42.1,41.8,29.62,West,261,9.0,12.0,99,0.01,,OVC080,0.64,VWS V13.01,2014-01-15 04:02:00,
2014-01-14 23:07:00,42.1,41.8,29.62,West,262,8.0,13.0,99,0.01,,OVC080,0.64,VWS V13.01,2014-01-15 04:07:00,
2014-01-14 23:12:00,42.1,41.8,29.62,West,259,8.0,16.0,99,0.01,,OVC080,0.64,VWS V13.01,2014-01-15 04:12:00,
2014-01-14 23:17:00,42.1,41.6,29.62,West,279,6.0,16.0,98,0.02,,-RA,0.65,VWS V13.01,2014-01-15 04:17:00,
2014-01-14 23:22:00,42.1,41.6,29.62,West,261,2.0,16.0,98,0.03,,-RA,0.66,VWS V13.01,2014-01-15 04:22:00,
2014-01-14 23:27:00,42.1,41.6,29.62,WSW,238,10.0,16.0,98,0.03,,-RA,0.66,VWS V13.01,2014-01-15 04:27:00,
2014-01-14 23:32:00,42.0,41.5,29.63,SW,219,5.0,11.0,98,0.02,,-RA,0.66,VWS V13.01,2014-01-15 04:32:00,
2014-01-14 23:37:00,42.0,41.5,29.63,WSW,242,5.0,16.0,98,0.02,,-RA,0.66,VWS V13.01,2014-01-15 04:37:00,
2014-01-14 23:42:00,42.0,41.5,29.63,SSW,200,4.0,16.0,98,0.02,,-RA,0.66,VWS V13.01,2014-01-15 04:42:00,
2014-01-14 23:47:00,42.0,41.5,29.64,WSW,254,12.0,16.0,98,0.02,,-RA,0.66,VWS V13.01,2014-01-15 04:47:00,
2014-01-14 23:52:00,41.8,41.0,29.64,West,263,2.0,16.0,97,0.02,,-RA,0.66,VWS V13.01,2014-01-15 04:52:00,
2014-01-14 23:57:00,41.7,40.9,29.64,WNW,282,4.0,16.0,97,0.02,,-RA,0.66,VWS V13.01,2014-01-15 04:57:00,